createdAt,value
2024-02-06T00:01:00.719Z,5.00
2024-02-06T00:03:43.239Z,5.00
2024-02-06T00:06:11.437Z,5.40
2024-02-06T00:08:39.700Z,5.10
2024-02-06T00:11:09.199Z,5.90
2024-02-06T00:13:38.829Z,5.40
2024-02-06T00:16:16.480Z,5.80
2024-02-06T00:18:44.601Z,6.60
2024-02-06T00:21:12.725Z,6.10
2024-02-06T00:23:40.840Z,6.00
2024-02-06T00:26:09.016Z,6.40
2024-02-06T00:28:37.211Z,6.60
2024-02-06T00:31:05.469Z,7.30
2024-02-06T00:33:33.717Z,7.60
2024-02-06T00:36:02.648Z,7.30
2024-02-06T00:38:30.944Z,7.10
2024-02-06T00:40:59.157Z,8.10
2024-02-06T00:43:27.482Z,7.90
2024-02-06T00:45:55.850Z,7.30
2024-02-06T00:48:24.133Z,7.40
2024-02-06T00:50:52.561Z,9.00
2024-02-06T00:53:20.852Z,8.10
2024-02-06T00:55:49.109Z,8.50
2024-02-06T00:58:17.583Z,8.00
2024-02-06T01:00:45.831Z,7.60
2024-02-06T01:03:14.047Z,8.60
2024-02-06T01:05:42.381Z,8.40
2024-02-06T01:08:10.605Z,9.00
2024-02-06T01:10:38.825Z,8.30
2024-02-06T01:13:07.097Z,8.90
2024-02-06T01:15:35.361Z,8.70
2024-02-06T01:18:03.768Z,9.60
2024-02-06T01:20:31.904Z,7.80
2024-02-06T01:23:00.215Z,7.50
2024-02-06T01:25:31.273Z,7.50
2024-02-06T01:27:59.685Z,7.80
2024-02-06T01:30:28.746Z,7.30
2024-02-06T01:32:57.270Z,6.70
2024-02-06T01:35:25.776Z,7.80
2024-02-06T01:37:54.161Z,6.80
2024-02-06T01:40:22.979Z,7.70
2024-02-06T01:42:51.814Z,7.90
2024-02-06T01:45:20.119Z,7.00
2024-02-06T01:47:48.774Z,7.70
2024-02-06T01:50:18.337Z,7.20
2024-02-06T01:52:46.899Z,7.30
2024-02-06T01:55:17.022Z,7.50
2024-02-06T01:57:48.328Z,7.70
2024-02-06T02:00:17.699Z,7.00
2024-02-06T02:02:45.882Z,7.10
2024-02-06T02:05:14.397Z,6.70
2024-02-06T02:07:43.546Z,6.60
2024-02-06T02:10:11.921Z,6.80
2024-02-06T02:12:41.573Z,7.20
2024-02-06T02:15:09.965Z,7.60
2024-02-06T02:17:38.203Z,7.60
2024-02-06T02:20:07.529Z,7.00
2024-02-06T02:22:35.849Z,7.60
2024-02-06T02:25:04.507Z,8.30
2024-02-06T02:27:32.876Z,9.20
2024-02-06T02:30:01.776Z,10.70
2024-02-06T02:32:31.345Z,9.90
2024-02-06T02:34:59.712Z,10.80
2024-02-06T02:37:27.874Z,11.20
2024-02-06T02:39:56.293Z,12.40
2024-02-06T02:42:24.490Z,11.00
2024-02-06T02:44:52.695Z,11.40
2024-02-06T02:47:20.881Z,11.60
2024-02-06T02:49:49.080Z,11.40
2024-02-06T02:52:17.269Z,11.30
2024-02-06T02:54:45.507Z,11.70
2024-02-06T02:57:13.625Z,12.20
2024-02-06T02:59:41.813Z,12.90
2024-02-06T03:02:10.034Z,12.20
2024-02-06T03:04:39.123Z,11.50
2024-02-06T03:07:07.423Z,11.70
2024-02-06T03:09:36.769Z,10.50
2024-02-06T03:12:05.279Z,9.90
2024-02-06T03:14:33.383Z,10.00
2024-02-06T03:17:02.070Z,11.20
2024-02-06T03:19:30.493Z,11.70
2024-02-06T03:21:58.815Z,11.20
2024-02-06T03:24:29.865Z,10.60
2024-02-06T03:26:58.108Z,9.20
2024-02-06T03:29:26.382Z,9.20
2024-02-06T03:31:54.512Z,8.40
2024-02-06T03:34:22.823Z,8.40
2024-02-06T03:36:51.117Z,7.30
2024-02-06T03:39:20.086Z,8.10
2024-02-06T03:41:48.713Z,8.50
2024-02-06T03:44:17.477Z,7.90
2024-02-06T03:46:45.741Z,7.90
2024-02-06T03:49:14.176Z,8.10
2024-02-06T03:51:42.558Z,7.30
2024-02-06T03:54:10.855Z,7.40
2024-02-06T03:56:39.005Z,7.70
2024-02-06T03:59:07.425Z,7.90
2024-02-06T04:01:36.870Z,7.90
2024-02-06T04:04:05.781Z,8.40
2024-02-06T04:06:33.991Z,7.80
2024-02-06T04:09:02.264Z,7.90
2024-02-06T04:11:31.056Z,7.70
2024-02-06T04:13:59.235Z,7.20
2024-02-06T04:16:27.529Z,6.80
2024-02-06T04:18:55.918Z,8.20
2024-02-06T04:21:24.237Z,7.40
2024-02-06T04:23:52.413Z,7.60
2024-02-06T04:26:20.619Z,7.50
2024-02-06T04:28:48.774Z,7.30
2024-02-06T04:31:16.991Z,7.70
2024-02-06T04:33:45.298Z,8.20
2024-02-06T04:36:13.470Z,8.00
2024-02-06T04:38:41.677Z,8.30
2024-02-06T04:41:09.855Z,7.90
2024-02-06T04:43:38.114Z,8.30
2024-02-06T04:46:06.472Z,8.50
2024-02-06T04:48:35.110Z,9.50
2024-02-06T04:51:03.415Z,9.90
2024-02-06T04:53:33.129Z,9.30
2024-02-06T04:56:01.315Z,10.10
2024-02-06T04:58:29.823Z,10.70
2024-02-06T05:00:58.064Z,9.50
2024-02-06T05:03:26.586Z,9.70
2024-02-06T05:05:55.208Z,10.00
2024-02-06T05:08:23.361Z,10.40
2024-02-06T05:10:54.270Z,11.50
2024-02-06T05:13:22.571Z,12.00
2024-02-06T05:15:50.866Z,10.80
2024-02-06T05:18:19.380Z,12.90
2024-02-06T05:20:47.672Z,11.60
2024-02-06T05:23:15.961Z,11.80
2024-02-06T05:25:44.313Z,11.80
2024-02-06T05:28:12.697Z,10.70
2024-02-06T05:30:40.974Z,11.30
2024-02-06T05:33:09.285Z,11.30
2024-02-06T05:35:37.689Z,10.80
2024-02-06T05:38:05.989Z,12.00
2024-02-06T05:40:34.660Z,11.40
2024-02-06T05:43:03.768Z,11.40
2024-02-06T05:45:32.128Z,10.70
2024-02-06T05:48:01.556Z,9.50
2024-02-06T05:50:31.377Z,10.00
2024-02-06T05:52:59.750Z,9.60
2024-02-06T05:55:30.491Z,8.60
2024-02-06T05:57:58.852Z,8.70
2024-02-06T06:00:28.172Z,7.40
2024-02-06T06:02:56.469Z,6.60
2024-02-06T06:05:25.279Z,6.00
2024-02-06T06:07:53.852Z,5.20
2024-02-06T06:10:22.278Z,5.00
2024-02-06T06:12:50.477Z,5.20
2024-02-06T06:15:18.822Z,4.80
2024-02-06T06:17:47.064Z,5.70
2024-02-06T06:20:15.476Z,6.20
2024-02-06T06:22:43.872Z,6.10
2024-02-06T06:25:12.137Z,6.40
2024-02-06T06:27:43.382Z,6.30
2024-02-06T06:30:12.049Z,7.10
2024-02-06T06:32:41.714Z,6.40
2024-02-06T06:35:10.223Z,6.40
2024-02-06T06:37:39.602Z,5.80
2024-02-06T06:40:09.537Z,6.30
2024-02-06T06:42:38.358Z,6.60
2024-02-06T06:45:07.177Z,6.80
2024-02-06T06:47:35.635Z,6.50
2024-02-06T06:50:04.219Z,7.80
2024-02-06T06:52:33.134Z,8.20
2024-02-06T06:55:01.526Z,7.70
2024-02-06T06:57:29.837Z,6.60
2024-02-06T06:59:58.033Z,6.60
2024-02-06T07:02:26.245Z,6.70
2024-02-06T07:04:54.541Z,7.00
2024-02-06T07:07:22.757Z,5.60
2024-02-06T07:09:50.909Z,7.20
2024-02-06T07:12:19.271Z,7.40
2024-02-06T07:14:47.466Z,7.60
2024-02-06T07:17:17.242Z,6.50
2024-02-06T07:19:45.655Z,7.60
2024-02-06T07:22:14.050Z,7.40
2024-02-06T07:24:42.248Z,8.50
2024-02-06T07:27:10.524Z,6.80
2024-02-06T07:29:39.284Z,7.60
2024-02-06T07:32:07.570Z,7.30
2024-02-06T07:34:35.886Z,7.30
2024-02-06T07:37:04.451Z,8.90
2024-02-06T07:39:32.709Z,10.00
2024-02-06T07:42:00.893Z,11.30
2024-02-06T07:44:29.116Z,10.10
2024-02-06T07:46:57.284Z,11.20
2024-02-06T07:49:25.701Z,10.90
2024-02-06T07:51:53.984Z,10.90
2024-02-06T07:54:22.221Z,10.20
2024-02-06T07:56:50.443Z,11.60
2024-02-06T07:59:18.724Z,10.80
2024-02-06T08:01:47.090Z,11.20
2024-02-06T08:04:15.418Z,10.50
2024-02-06T08:06:43.742Z,11.80
2024-02-06T08:09:12.040Z,10.80
2024-02-06T08:11:40.298Z,10.90
2024-02-06T08:14:13.905Z,11.10
2024-02-06T08:16:42.349Z,11.90
2024-02-06T08:19:10.760Z,11.20
2024-02-06T08:21:39.308Z,12.00
2024-02-06T08:24:07.684Z,11.00
2024-02-06T08:26:35.903Z,12.00
2024-02-06T08:29:04.070Z,12.50
2024-02-06T08:31:32.534Z,11.60
2024-02-06T08:34:00.719Z,12.30
2024-02-06T08:36:29.250Z,13.10
2024-02-06T08:38:57.668Z,12.80
2024-02-06T08:41:30.404Z,12.10
2024-02-06T08:43:59.013Z,13.00
2024-02-06T08:46:29.854Z,12.60
2024-02-06T08:48:58.858Z,12.70
2024-02-06T08:51:27.126Z,12.20
2024-02-06T08:53:56.041Z,11.90
2024-02-06T08:56:24.457Z,10.30
2024-02-06T08:58:52.732Z,13.80
2024-02-06T09:01:24.190Z,15.70
2024-02-06T09:03:56.527Z,14.70
2024-02-06T09:06:28.566Z,15.70
2024-02-06T09:09:00.099Z,16.10
2024-02-06T09:11:28.836Z,16.90
2024-02-06T09:13:57.538Z,18.80
2024-02-06T09:16:27.229Z,20.00
2024-02-06T09:18:58.266Z,21.80
2024-02-06T09:21:27.378Z,24.80
2024-02-06T09:23:55.563Z,25.00
2024-02-06T09:26:23.714Z,26.70
2024-02-06T09:28:51.949Z,27.60
2024-02-06T09:31:21.250Z,24.90
2024-02-06T09:33:50.004Z,25.50
2024-02-06T09:36:19.015Z,24.80
2024-02-06T09:38:47.960Z,24.10
2024-02-06T09:41:16.895Z,25.40
2024-02-06T09:43:45.609Z,23.30
2024-02-06T09:46:13.987Z,24.10
2024-02-06T09:48:43.896Z,25.70
2024-02-06T09:51:14.967Z,25.60
2024-02-06T09:53:44.600Z,29.10
2024-02-06T09:56:13.232Z,30.70
2024-02-06T09:58:42.314Z,32.60
2024-02-06T10:01:14.209Z,35.40
2024-02-06T10:03:46.616Z,36.20
2024-02-06T10:06:20.804Z,36.10
2024-02-06T10:08:50.299Z,34.60
2024-02-06T10:11:21.824Z,35.30
2024-02-06T10:13:50.260Z,35.10
2024-02-06T10:16:18.777Z,29.30
2024-02-06T10:18:53.877Z,29.80
2024-02-06T10:21:24.012Z,27.10
2024-02-06T10:24:01.579Z,28.40
2024-02-06T10:26:29.840Z,29.00
2024-02-06T10:29:09.195Z,29.40
2024-02-06T10:31:39.368Z,27.70
2024-02-06T10:34:09.805Z,27.40
2024-02-06T10:36:38.897Z,29.50
2024-02-06T10:39:09.891Z,28.10
2024-02-06T10:41:57.891Z,29.00
2024-02-06T10:44:29.969Z,28.90
2024-02-06T10:47:06.211Z,29.80
2024-02-06T10:49:35.075Z,28.40
2024-02-06T10:52:05.734Z,28.40
2024-02-06T10:54:35.899Z,27.80
2024-02-06T10:57:09.751Z,27.30
2024-02-06T10:59:53.423Z,28.60
2024-02-06T11:02:26.021Z,28.20
2024-02-06T11:05:03.185Z,27.80
2024-02-06T11:07:35.397Z,27.80
2024-02-06T11:10:09.065Z,28.30
2024-02-06T11:12:39.394Z,28.20
2024-02-06T11:15:13.381Z,27.60
2024-02-06T11:17:43.730Z,28.70
2024-02-06T11:20:15.385Z,22.60
2024-02-06T11:22:46.777Z,25.10
2024-02-06T11:25:18.490Z,26.60
2024-02-06T11:27:49.094Z,28.30
2024-02-06T11:30:18.500Z,28.90
2024-02-06T11:32:46.782Z,29.10
2024-02-06T11:35:15.885Z,27.50
2024-02-06T11:37:54.718Z,27.70
2024-02-06T11:40:30.096Z,23.00
2024-02-06T11:43:05.418Z,20.70
2024-02-06T11:45:35.173Z,19.10
2024-02-06T11:48:06.146Z,19.50
2024-02-06T11:50:45.650Z,22.60
2024-02-06T11:53:15.931Z,29.00
2024-02-06T11:55:48.053Z,29.00
2024-02-06T11:58:17.371Z,26.70
2024-02-06T12:00:46.345Z,29.30
2024-02-06T12:03:17.695Z,31.00
2024-02-06T12:05:47.286Z,31.10
2024-02-06T12:08:22.293Z,26.30
2024-02-06T12:10:52.054Z,28.30
2024-02-06T12:13:23.350Z,25.80
2024-02-06T12:15:52.113Z,23.20
2024-02-06T12:18:21.975Z,23.30
2024-02-06T12:20:50.514Z,23.20
2024-02-06T12:23:19.282Z,19.70
2024-02-06T12:25:49.472Z,17.70
2024-02-06T12:28:18.187Z,17.30
2024-02-06T12:30:50.733Z,16.20
2024-02-06T12:33:20.155Z,14.60
2024-02-06T12:35:49.230Z,15.70
2024-02-06T12:38:19.804Z,14.20
2024-02-06T12:40:48.290Z,11.00
2024-02-06T12:43:17.845Z,11.90
2024-02-06T12:45:46.787Z,15.10
2024-02-06T12:48:15.830Z,14.10
2024-02-06T12:50:44.348Z,15.60
2024-02-06T12:53:12.943Z,10.60
2024-02-06T12:55:42.145Z,13.70
2024-02-06T12:58:10.571Z,11.10
2024-02-06T13:00:40.074Z,11.80
2024-02-06T13:03:16.748Z,11.40
2024-02-06T13:05:47.577Z,8.80
2024-02-06T13:08:17.603Z,7.70
2024-02-06T13:10:45.957Z,8.00
2024-02-06T13:13:17.952Z,8.10
2024-02-06T13:15:46.576Z,8.30
2024-02-06T13:18:20.624Z,7.10
2024-02-06T13:20:58.405Z,7.00
2024-02-06T13:23:26.708Z,6.20
2024-02-06T13:25:54.905Z,5.80
2024-02-06T13:28:23.180Z,5.90
2024-02-06T13:30:51.383Z,6.30
2024-02-06T13:33:19.875Z,6.50
2024-02-06T13:35:48.015Z,7.20
2024-02-06T13:38:16.271Z,9.60
2024-02-06T13:40:44.619Z,6.40
2024-02-06T13:43:13.098Z,7.40
2024-02-06T13:45:41.269Z,7.90
2024-02-06T13:48:09.522Z,9.20
2024-02-06T13:50:37.695Z,7.70
2024-02-06T13:53:06.688Z,7.60
2024-02-06T13:55:34.965Z,8.70
2024-02-06T13:58:04.269Z,8.10
2024-02-06T14:00:32.454Z,7.50
2024-02-06T14:03:00.689Z,6.00
2024-02-06T14:05:29.986Z,6.00
2024-02-06T14:07:59.192Z,6.60
2024-02-06T14:10:27.761Z,7.30
2024-02-06T14:12:56.080Z,8.50
2024-02-06T14:15:24.284Z,8.10
2024-02-06T14:17:52.553Z,10.40
2024-02-06T14:20:20.922Z,8.40
2024-02-06T14:22:49.337Z,7.80
2024-02-06T14:25:18.643Z,8.10
2024-02-06T14:27:46.940Z,9.60
2024-02-06T14:30:15.274Z,8.00
2024-02-06T14:32:43.690Z,8.80
2024-02-06T14:35:12.071Z,8.30
2024-02-06T14:37:40.585Z,8.50
2024-02-06T14:40:09.293Z,8.40
2024-02-06T14:42:37.569Z,10.50
2024-02-06T14:45:06.313Z,8.30
2024-02-06T14:47:34.621Z,8.10
2024-02-06T14:50:03.116Z,8.40
2024-02-06T14:52:31.285Z,8.00
2024-02-06T14:54:59.620Z,7.00
2024-02-06T14:57:28.569Z,7.20
2024-02-06T14:59:56.987Z,7.10
2024-02-06T15:02:25.381Z,6.70
2024-02-06T15:04:53.756Z,7.50
2024-02-06T15:07:22.126Z,6.50
2024-02-06T15:09:50.750Z,7.10
2024-02-06T15:12:18.859Z,5.80
2024-02-06T15:14:47.319Z,7.00
2024-02-06T15:17:15.572Z,5.80
2024-02-06T15:19:45.927Z,5.60
2024-02-06T15:22:14.367Z,6.60
2024-02-06T15:24:43.688Z,8.20
2024-02-06T15:27:12.222Z,7.80
2024-02-06T15:29:40.444Z,7.00
2024-02-06T15:32:08.730Z,6.70
2024-02-06T15:34:37.155Z,7.30
2024-02-06T15:37:06.048Z,8.20
2024-02-06T15:39:34.270Z,8.90
2024-02-06T15:42:02.391Z,7.10
2024-02-06T15:44:30.603Z,7.20
2024-02-06T15:46:58.887Z,7.20
2024-02-06T15:49:27.196Z,7.30
2024-02-06T15:51:55.559Z,6.70
2024-02-06T15:54:23.734Z,7.10
2024-02-06T15:56:52.001Z,6.80
2024-02-06T15:59:20.204Z,7.10
2024-02-06T16:01:49.523Z,6.40
2024-02-06T16:04:18.445Z,8.00
2024-02-06T16:06:46.843Z,7.20
2024-02-06T16:09:18.279Z,5.70
2024-02-06T16:11:49.463Z,6.40
2024-02-06T16:14:18.328Z,6.20
2024-02-06T16:16:48.958Z,6.50
2024-02-06T16:19:26.996Z,6.00
2024-02-06T16:22:01.636Z,5.60
2024-02-06T16:24:30.447Z,6.10
2024-02-06T16:27:00.244Z,5.60
2024-02-06T16:29:28.917Z,6.00
2024-02-06T16:31:57.786Z,5.60
2024-02-06T16:34:37.191Z,6.50
2024-02-06T16:37:08.255Z,6.40
2024-02-06T16:39:37.185Z,6.70
2024-02-06T16:42:06.855Z,6.40
2024-02-06T16:44:35.228Z,6.20
2024-02-06T16:47:03.647Z,6.60
2024-02-06T16:49:32.096Z,7.70
2024-02-06T16:52:00.558Z,6.90
2024-02-06T16:54:28.973Z,7.00
2024-02-06T16:56:58.313Z,7.20
2024-02-06T16:59:26.522Z,7.00
2024-02-06T17:01:54.952Z,7.10
2024-02-06T17:04:23.649Z,6.10
2024-02-06T17:06:52.256Z,6.40
2024-02-06T17:09:20.678Z,5.90
2024-02-06T17:11:49.410Z,6.50
2024-02-06T17:14:17.737Z,6.10
2024-02-06T17:16:47.277Z,5.50
2024-02-06T17:19:16.389Z,6.20
2024-02-06T17:21:47.627Z,7.30
2024-02-06T17:24:15.985Z,7.20
2024-02-06T17:26:44.233Z,5.80
2024-02-06T17:29:12.988Z,6.10
2024-02-06T17:31:41.399Z,5.50
2024-02-06T17:34:09.959Z,5.90
2024-02-06T17:36:40.020Z,5.30
2024-02-06T17:39:09.172Z,5.80
2024-02-06T17:41:37.554Z,5.30
2024-02-06T17:44:05.898Z,5.70
2024-02-06T17:46:34.310Z,5.20
2024-02-06T17:49:02.939Z,4.80
2024-02-06T17:51:32.392Z,5.80
2024-02-06T17:54:00.723Z,5.40
2024-02-06T17:56:29.640Z,5.20
2024-02-06T17:58:58.633Z,5.60
2024-02-06T18:01:27.316Z,5.00
2024-02-06T18:03:55.594Z,6.00
2024-02-06T18:06:23.826Z,5.40
2024-02-06T18:08:52.145Z,4.90
2024-02-06T18:11:20.708Z,4.70
2024-02-06T18:13:49.173Z,5.50
2024-02-06T18:16:17.451Z,6.20
2024-02-06T18:18:45.779Z,5.70
2024-02-06T18:21:14.102Z,5.60
2024-02-06T18:23:42.702Z,5.40
2024-02-06T18:26:11.144Z,5.10
2024-02-06T18:28:39.608Z,6.10
2024-02-06T18:31:08.422Z,5.60
2024-02-06T18:33:37.007Z,5.60
2024-02-06T18:36:10.010Z,5.20
2024-02-06T18:38:38.341Z,5.40
2024-02-06T18:41:07.822Z,5.10
2024-02-06T18:43:36.607Z,5.90
2024-02-06T18:46:05.016Z,4.90
2024-02-06T18:48:33.359Z,4.90
2024-02-06T18:51:01.675Z,5.10
2024-02-06T18:53:29.849Z,5.00
2024-02-06T18:55:58.145Z,5.40
2024-02-06T18:58:26.722Z,5.80
2024-02-06T19:00:54.996Z,5.40
2024-02-06T19:03:23.498Z,5.70
2024-02-06T19:05:51.951Z,6.30
2024-02-06T19:08:20.291Z,5.60
2024-02-06T19:10:48.664Z,5.90
2024-02-06T19:13:17.070Z,5.40
2024-02-06T19:15:45.366Z,5.60
2024-02-06T19:18:13.907Z,5.60
2024-02-06T19:20:42.288Z,6.00
2024-02-06T19:23:10.511Z,5.50
2024-02-06T19:25:39.156Z,6.10
2024-02-06T19:28:07.399Z,6.40
2024-02-06T19:30:38.908Z,5.70
2024-02-06T19:33:07.166Z,6.00
2024-02-06T19:35:36.279Z,6.80
2024-02-06T19:38:04.667Z,7.00
2024-02-06T19:40:32.905Z,7.10
2024-02-06T19:43:01.154Z,6.30
2024-02-06T19:45:29.377Z,6.60
2024-02-06T19:47:58.054Z,7.30
2024-02-06T19:50:27.089Z,7.50
2024-02-06T19:52:57.393Z,7.10
2024-02-06T19:55:25.616Z,7.20
2024-02-06T19:57:53.875Z,7.50
2024-02-06T20:00:22.091Z,5.90
2024-02-06T20:02:51.367Z,5.10
2024-02-06T20:05:20.204Z,5.10
2024-02-06T20:07:48.535Z,5.80
2024-02-06T20:10:16.895Z,5.80
2024-02-06T20:12:45.175Z,5.80
2024-02-06T20:15:13.499Z,5.80
2024-02-06T20:17:41.815Z,5.10
2024-02-06T20:20:11.226Z,5.50
2024-02-06T20:22:39.754Z,5.30
2024-02-06T20:25:08.358Z,5.10
2024-02-06T20:27:36.677Z,4.50
2024-02-06T20:30:07.002Z,4.40
2024-02-06T20:32:35.588Z,4.20
2024-02-06T20:35:04.263Z,3.60
2024-02-06T20:37:32.723Z,4.40
2024-02-06T20:40:00.940Z,3.80
2024-02-06T20:42:29.403Z,4.30
2024-02-06T20:44:57.779Z,4.00
2024-02-06T20:47:26.152Z,4.60
2024-02-06T20:49:55.303Z,4.20
2024-02-06T20:52:23.734Z,4.10
2024-02-06T20:54:52.612Z,3.90
2024-02-06T20:57:21.406Z,3.90
2024-02-06T20:59:49.628Z,3.60
2024-02-06T21:02:18.955Z,3.30
2024-02-06T21:04:47.410Z,3.40
2024-02-06T21:07:16.137Z,4.20
2024-02-06T21:09:44.427Z,3.80
2024-02-06T21:12:12.705Z,4.30
2024-02-06T21:14:41.407Z,4.30
2024-02-06T21:17:09.794Z,4.80
2024-02-06T21:19:38.658Z,4.80
2024-02-06T21:22:07.019Z,4.40
2024-02-06T21:24:37.789Z,3.70
2024-02-06T21:27:06.179Z,4.30
2024-02-06T21:29:34.447Z,4.60
2024-02-06T21:32:02.612Z,3.70
2024-02-06T21:34:31.143Z,4.00
2024-02-06T21:36:59.374Z,4.10
2024-02-06T21:39:30.468Z,4.20
2024-02-06T21:42:01.480Z,4.40
2024-02-06T21:44:29.916Z,4.40
2024-02-06T21:46:58.212Z,4.50
2024-02-06T21:49:28.277Z,4.90
2024-02-06T21:51:56.509Z,4.10
2024-02-06T21:54:24.684Z,4.10
2024-02-06T21:56:52.834Z,4.20
2024-02-06T21:59:21.111Z,3.80
2024-02-06T22:01:49.953Z,3.70
2024-02-06T22:04:18.415Z,3.80
2024-02-06T22:06:49.560Z,4.10
2024-02-06T22:09:18.283Z,3.80
2024-02-06T22:11:48.499Z,3.30
2024-02-06T22:14:17.614Z,3.50
2024-02-06T22:16:46.782Z,3.50
2024-02-06T22:19:16.301Z,3.30
2024-02-06T22:21:45.363Z,3.40
2024-02-06T22:24:16.538Z,3.00
2024-02-06T22:26:47.331Z,3.20
2024-02-06T22:29:16.144Z,3.50
2024-02-06T22:31:47.563Z,3.00
2024-02-06T22:34:17.555Z,3.10
2024-02-06T22:36:46.094Z,3.10
2024-02-06T22:39:15.755Z,3.40
2024-02-06T22:41:51.414Z,3.10
2024-02-06T22:44:20.154Z,3.10
2024-02-06T22:46:48.661Z,3.30
2024-02-06T22:49:17.051Z,2.90
2024-02-06T22:51:45.301Z,2.80
2024-02-06T22:54:16.016Z,3.60
2024-02-06T22:56:44.591Z,2.70
2024-02-06T22:59:12.786Z,3.10
2024-02-06T23:01:46.921Z,3.20
2024-02-06T23:04:15.258Z,3.20
2024-02-06T23:06:43.502Z,2.90
2024-02-06T23:09:14.930Z,2.90
2024-02-06T23:11:43.218Z,2.70
2024-02-06T23:14:11.480Z,2.60
2024-02-06T23:16:39.757Z,2.60
2024-02-06T23:19:08.347Z,2.70
2024-02-06T23:21:36.586Z,2.80
2024-02-06T23:24:05.115Z,2.60
2024-02-06T23:26:33.277Z,3.40
2024-02-06T23:29:01.404Z,2.70
2024-02-06T23:31:29.599Z,3.10
2024-02-06T23:33:59.985Z,3.00
2024-02-06T23:36:28.272Z,2.70
2024-02-06T23:39:09.182Z,2.80
2024-02-06T23:41:43.659Z,3.10
2024-02-06T23:44:12.301Z,3.00
2024-02-06T23:46:40.826Z,2.70
2024-02-06T23:49:09.600Z,2.80
2024-02-06T23:51:37.917Z,1.90
2024-02-06T23:54:06.190Z,1.50
2024-02-06T23:56:34.337Z,1.20
2024-02-06T23:59:03.165Z,3.20
